Latest Weather Observations for Gosford

IDN60801

Issued at 11:05 pm EST Monday 1 September 2014 (issued every 30 minutes, with the page automatically refreshed every 10 minutes)

About weather observations | Map of weather stations | Latest weather observations for NSW | Other Formats
Station Details ID: 061425 Name: GOSFORD AWS Lat: -33.44 Lon: 151.36 Height: 7.0 m
Data from the previous 72 hours. | See also: Recent months for locations in New South Wales
Date/Time
EST
Temp
°C
App
Temp
°C
Dew
Point
Rel
Hum
%
Delta-T
°C
Wind Press
QNH
hPa
Press
MSL
hPa
Rain
since 9 am
mm
Dir
 
Spd
km/h
Gust
km/h
Spd
kts
Gust
kts
01/11:00pm 13.0 13.9 13.0 100 0.0 NE 0 0 0 0 - - 0.2
01/10:30pm 13.4 14.5 13.4 100 0.0 NE 0 0 0 0 - - 0.2
01/10:00pm 13.5 14.2 13.5 100 0.0 NE 2 4 1 2 - - 0.2
01/09:30pm 13.9 15.0 13.6 98 0.2 CALM 0 4 0 2 - - 0.2
01/09:00pm 14.7 14.6 13.2 91 0.8 N 6 9 3 5 - - 0.2
01/08:30pm 15.5 16.2 13.5 88 1.1 N 2 7 1 4 - - 0.2
01/08:00pm 17.2 17.0 13.7 80 2.0 N 7 11 4 6 - - 0.2
01/07:30pm 18.4 17.9 13.9 75 2.6 N 9 15 5 8 - - 0.2
01/07:00pm 19.2 18.8 14.2 73 2.9 N 9 13 5 7 - - 0.2
01/06:30pm 18.7 18.9 14.2 75 2.6 N 6 13 3 7 - - 0.2
01/06:00pm 19.8 20.0 14.8 73 2.9 NNE 7 15 4 8 - - 0.2
01/05:30pm 20.5 20.9 14.8 70 3.3 NNE 6 11 3 6 - - 0.2
01/05:00pm 20.3 21.4 15.5 74 2.8 NE 4 7 2 4 - - 0.2
01/04:30pm 20.5 21.4 16.1 76 2.6 ENE 6 7 3 4 - - 0.2
01/04:00pm 20.9 20.5 15.2 70 3.4 E 11 15 6 8 - - 0.2
01/03:30pm 21.6 21.2 15.2 67 3.8 E 11 17 6 9 - - 0.2
01/03:00pm 23.4 24.3 14.1 56 5.5 N 2 7 1 4 - - 0.2
01/02:30pm 23.3 23.7 13.8 55 5.5 N 4 11 2 6 - - 0.2
01/02:00pm 23.1 22.9 13.0 53 5.8 NW 6 9 3 5 - - 0.2
01/01:30pm 22.6 21.5 13.1 55 5.5 W 11 22 6 12 - - 0.2
01/01:00pm 22.9 21.7 12.8 53 5.8 WNW 11 19 6 10 - - 0.2
01/12:30pm 22.1 21.6 12.6 55 5.4 NW 7 13 4 7 - - 0.2
01/12:00pm 21.8 21.5 12.6 56 5.2 W 6 13 3 7 - - 0.2
01/11:30am 21.3 20.4 13.7 62 4.4 W 11 20 6 11 - - 0.2
01/11:00am 21.1 20.3 14.0 64 4.1 WNW 11 17 6 9 - - 0.2
01/10:30am 20.3 18.5 13.3 64 4.0 WNW 15 22 8 12 - - 0.0
01/10:00am 20.0 20.3 15.0 73 2.9 WNW 7 15 4 8 - - 0.0
01/09:30am 18.4 19.7 15.1 81 1.9 N 2 7 1 4 - - 0.0
01/09:00am 16.1 17.9 15.5 96 0.3 CALM 0 0 0 0 - - 0.0
01/08:30am 13.7 - - - - CALM 0 4 0 2 - - 0.0
01/08:00am 12.1 - - - - CALM 0 0 0 0 - - 0.0
01/07:30am 10.3 - - - - CALM 0 0 0 0 - - 0.0
01/07:00am 9.3 - - - - CALM 0 0 0 0 - - 0.0
01/06:30am 7.8 - - - - CALM 0 0 0 0 - - 0.0
01/06:00am 8.1 - - - - N 0 0 0 0 - - 0.0
01/05:30am 8.0 - - - - CALM 0 0 0 0 - - 0.0
01/05:00am 8.2 - - - - CALM 0 0 0 0 - - 0.0
01/04:30am 8.4 - - - - CALM 0 0 0 0 - - 0.0
01/04:00am 8.4 - - - - CALM 0 0 0 0 - - 0.0
01/03:30am 8.7 - - - - CALM 0 0 0 0 - - 0.0
01/03:00am 8.8 - - - - CALM 0 0 0 0 - - 0.0
01/02:30am 9.2 - - - - CALM 0 0 0 0 - - 0.0
01/02:00am 9.4 - - - - CALM 0 0 0 0 - - 0.0
01/01:30am 9.7 - - - - CALM 0 0 0 0 - - 0.0
01/01:00am 10.0 - - - - CALM 0 0 0 0 - - 0.0
01/12:30am 9.9 - - - - CALM 0 0 0 0 - - 0.0
01/12:00am 10.5 - - - - N 0 0 0 0 - - 0.0
 
Date/Time
EST
Temp
°C
App
Temp
°C
Dew
Point
Rel
Hum
%
Delta-T
°C
Wind Press
QNH
hPa
Press
MSL
hPa
Rain
since 9 am
mm
Dir
 
Spd
km/h
Gust
km/h
Spd
kts
Gust
kts
31/11:30pm 10.4 - - - - CALM 0 0 0 0 - - 0.0
31/11:00pm 11.1 - - - - CALM 0 0 0 0 - - 0.0
31/10:30pm 11.2 - - - - CALM 0 0 0 0 - - 0.0
31/10:00pm 11.3 - - - - CALM 0 0 0 0 - - 0.0
31/09:30pm 11.2 - - - - CALM 0 0 0 0 - - 0.0
31/09:00pm 11.6 - - - - CALM 0 0 0 0 - - 0.0
31/08:30pm 12.1 - - - - CALM 0 0 0 0 - - 0.0
31/08:00pm 12.7 - - - - CALM 0 0 0 0 - - 0.0
31/07:30pm 12.9 - - - - CALM 0 0 0 0 - - 0.0
31/07:00pm 13.3 - - - - CALM 0 0 0 0 - - 0.0
31/06:30pm 14.2 - - - - CALM 0 0 0 0 - - 0.0
31/06:00pm 14.9 16.5 14.9 100 0.0 CALM 0 0 0 0 - - 0.0
31/05:30pm 16.4 17.2 15.9 97 0.3 E 6 9 3 5 - - 0.0
31/05:00pm 17.2 17.6 15.4 89 1.1 E 7 11 4 6 - - 0.0
31/04:30pm 18.1 18.8 16.1 88 1.2 E 7 11 4 6 - - 0.0
31/04:00pm 18.8 19.5 16.2 85 1.6 SE 7 11 4 6 - - 0.0
31/03:30pm 19.2 20.0 16.4 84 1.7 E 7 13 4 7 - - 0.0
31/03:00pm 19.9 20.8 16.0 78 2.3 SSW 6 9 3 5 - - 0.0
31/02:30pm 19.8 20.4 15.4 76 2.6 SSW 6 9 3 5 - - 0.0
31/02:00pm 19.6 20.2 15.3 76 2.5 S 6 7 3 4 - - 0.0
31/01:30pm 19.3 19.9 15.2 77 2.4 S 6 9 3 5 - - 0.0
31/01:00pm 19.1 19.6 15.6 80 2.1 S 7 11 4 6 - - 0.0
31/12:30pm 18.5 18.9 14.8 79 2.1 SSW 6 9 3 5 - - 0.0
31/12:00pm 18.3 18.6 15.0 81 1.9 S 7 9 4 5 - - 0.0
31/11:30am 18.0 18.3 15.1 83 1.7 WSW 7 13 4 7 - - 0.0
31/11:00am 17.7 17.5 14.6 82 1.8 SW 9 19 5 10 - - 0.0
31/10:30am 17.1 16.7 14.2 83 1.7 SSW 9 13 5 7 - - 0.0
31/10:00am 17.1 16.9 14.6 85 1.4 WSW 9 15 5 8 - - 0.0
31/09:30am 16.3 15.9 14.1 87 1.2 WSW 9 15 5 8 - - 0.0
31/09:00am 15.6 15.2 14.1 91 0.8 WSW 9 15 5 8 - - 3.0
31/08:30am 15.2 14.4 14.1 93 0.6 W 11 17 6 9 - - 3.0
31/08:00am 14.7 14.3 14.1 96 0.3 WSW 9 17 5 9 - - 3.0
31/07:30am 13.9 13.7 13.7 99 0.1 WSW 7 11 4 6 - - 3.0
31/07:00am 12.9 12.7 12.9 100 0.0 W 6 7 3 4 - - 3.0
31/06:30am 12.4 12.0 12.4 100 0.0 W 6 9 3 5 - - 3.0
31/06:00am 12.2 11.7 12.2 100 0.0 W 6 9 3 5 - - 3.0
31/05:30am 12.1 - - - - W 7 9 4 5 - - 3.0
31/05:00am 12.2 - - - - W 6 7 3 4 - - 3.0
31/04:30am 13.1 12.7 13.1 100 0.0 W 7 11 4 6 - - 3.0
31/04:00am 13.4 13.1 13.4 100 0.0 W 7 11 4 6 - - 3.0
31/03:30am 13.6 13.4 13.6 100 0.0 WSW 7 15 4 8 - - 3.0
31/03:00am 13.4 - - - - WSW 7 11 4 6 - - 3.0
31/02:30am 12.9 - - - - W 4 7 2 4 - - 3.0
31/02:00am 13.2 - - - - W 6 9 3 5 - - 2.8
31/01:30am 13.5 - - - - SW 9 17 5 9 - - 2.8
31/01:00am 13.8 - - - - SW 9 17 5 9 - - 2.8
31/12:30am 13.6 - - - - WSW 6 9 3 5 - - 2.8
31/12:00am 13.8 13.3 13.8 100 0.0 SW 9 15 5 8 - - 2.8
 
Date/Time
EST
Temp
°C
App
Temp
°C
Dew
Point
Rel
Hum
%
Delta-T
°C
Wind Press
QNH
hPa
Press
MSL
hPa
Rain
since 9 am
mm
Dir
 
Spd
km/h
Gust
km/h
Spd
kts
Gust
kts
30/11:30pm 14.0 13.2 14.0 100 0.0 SW 11 20 6 11 - - 2.8
30/11:00pm 14.1 13.3 14.1 100 0.0 SW 11 19 6 10 - - 2.8
30/10:30pm 14.2 13.1 14.2 100 0.0 SW 13 24 7 13 - - 2.8
30/10:00pm 14.3 13.6 14.3 100 0.0 SW 11 19 6 10 - - 2.8
30/09:30pm 14.3 13.2 14.3 100 0.0 SW 13 20 7 11 - - 2.8
30/09:00pm 14.3 14.0 14.3 100 0.0 SW 9 19 5 10 - - 2.8
30/08:30pm 14.4 13.7 14.4 100 0.0 SSW 11 19 6 10 - - 2.8
30/08:00pm 14.0 - - - - SW 11 19 6 10 - - 2.8
30/07:30pm 14.5 13.9 14.5 100 0.0 SW 11 19 6 10 - - 2.8
30/07:00pm 14.3 - - - - SW 11 19 6 10 - - 2.8
30/06:30pm 14.5 - - - - SW 13 20 7 11 - - 2.8
30/06:00pm 15.1 14.3 15.1 100 0.0 SW 13 24 7 13 - - 2.6
30/05:30pm 15.4 14.3 15.4 100 0.0 SW 15 24 8 13 - - 2.6
30/05:00pm 15.2 14.8 15.2 100 0.0 SW 11 19 6 10 - - 2.6
30/04:30pm 15.2 14.8 15.2 100 0.0 SW 11 19 6 10 - - 2.6
30/04:00pm 15.8 15.3 15.8 100 0.0 SW 13 22 7 12 - - 2.6
30/03:30pm 15.9 15.8 15.9 100 0.0 SSW 11 20 6 11 - - 2.6
30/03:00pm 16.0 15.9 16.0 100 0.0 SW 11 22 6 12 - - 2.6
30/02:30pm 15.7 - - - - SW 11 19 6 10 - - 2.6
30/02:00pm 15.2 - - - - SW 11 17 6 9 - - 2.6
30/01:30pm 14.7 - - - - SW 11 20 6 11 - - 2.4
30/01:00pm 14.9 - - - - SW 13 19 7 10 - - 1.4
30/12:30pm 14.0 - - - - SW 13 20 7 11 - - 1.4
30/12:00pm 13.8 - - - - WSW 11 20 6 11 - - 1.2
30/11:30am 13.7 - - - - SW 13 22 7 12 - - 1.0
30/11:00am 13.7 - - - - WSW 11 19 6 10 - - 0.8
30/10:30am 12.5 - - - - WSW 9 20 5 11 - - 0.8
30/10:00am 12.3 - - - - WSW 9 15 5 8 - - 0.2
30/09:30am 12.2 - - - - WSW 13 22 7 12 - - 0.0
30/09:00am 12.1 - - - - WSW 15 22 8 12 - - 0.4
30/08:30am 12.1 - - - - WSW 15 35 8 19 - - 0.4
30/08:00am 12.3 - - - - SW 13 20 7 11 - - 0.4
30/07:30am 12.9 11.0 12.9 100 0.0 SW 15 26 8 14 - - 0.4
30/07:00am 13.4 11.0 12.6 95 0.4 SW 17 28 9 15 - - 0.4
30/06:30am 13.4 11.5 12.9 97 0.3 SW 15 24 8 13 - - 0.4
30/06:00am 13.1 11.9 12.8 98 0.2 SW 11 24 6 13 - - 0.4
30/05:30am 12.6 10.6 12.6 100 0.0 SW 15 28 8 15 - - 0.4
30/05:00am 12.4 10.3 12.4 100 0.0 SW 15 28 8 15 - - 0.4
30/04:30am 13.2 10.2 12.1 93 0.6 SW 19 32 10 17 - - 0.4
30/04:00am 13.4 10.5 11.1 86 1.2 SW 17 30 9 16 - - 0.4
30/03:30am 13.4 10.6 11.3 87 1.1 WSW 17 26 9 14 - - 0.4
30/03:00am 13.5 10.7 11.4 87 1.1 SW 17 32 9 17 - - 0.4
30/02:30am 13.5 10.7 11.4 87 1.1 SW 17 24 9 13 - - 0.4
30/02:00am 13.5 10.7 11.4 87 1.1 SW 17 30 9 16 - - 0.4
30/01:30am 13.6 10.4 11.1 85 1.3 SW 19 32 10 17 - - 0.4
30/01:00am 13.6 11.2 11.3 86 1.2 SSW 15 30 8 16 - - 0.4
30/12:30am 13.7 10.5 11.2 85 1.3 SSW 19 33 10 18 - - 0.4
30/12:00am 14.0 10.7 11.0 82 1.6 SW 19 32 10 17 - - 0.4
 
Date/Time
EST
Temp
°C
App
Temp
°C
Dew
Point
Rel
Hum
%
Delta-T
°C
Wind Press
QNH
hPa
Press
MSL
hPa
Rain
since 9 am
mm
Dir
 
Spd
km/h
Gust
km/h
Spd
kts
Gust
kts
29/11:30pm 14.1 10.9 11.3 83 1.5 SW 19 28 10 15 - - 0.4

Other Formats:

Comma delimited format used in spreadsheet applications
http://www.bom.gov.au/fwo/IDN60801/IDN60801.94782.axf

JavaScript Object Notation format (JSON) in row-major order
http://www.bom.gov.au/fwo/IDN60801/IDN60801.94782.json